createdAt,value
2023-04-21T00:03:06.602Z,100.00
2023-04-21T00:07:09.488Z,100.00
2023-04-21T00:11:46.094Z,100.00
2023-04-21T00:15:49.029Z,100.00
2023-04-21T00:19:53.588Z,100.00
2023-04-21T00:23:56.863Z,100.00
2023-04-21T00:27:59.679Z,100.00
2023-04-21T00:32:08.386Z,100.00
2023-04-21T00:36:12.619Z,100.00
2023-04-21T00:40:16.623Z,100.00
2023-04-21T00:44:19.429Z,100.00
2023-04-21T00:48:23.404Z,100.00
2023-04-21T00:52:28.190Z,100.00
2023-04-21T00:56:33.353Z,100.00
2023-04-21T01:00:37.717Z,100.00
2023-04-21T01:04:50.555Z,100.00
2023-04-21T01:08:54.848Z,100.00
2023-04-21T01:12:57.661Z,100.00
2023-04-21T01:17:01.443Z,100.00
2023-04-21T01:21:09.457Z,100.00
2023-04-21T01:25:13.624Z,100.00
2023-04-21T01:29:40.731Z,100.00
2023-04-21T01:33:44.348Z,100.00
2023-04-21T01:37:47.165Z,100.00
2023-04-21T01:41:52.024Z,100.00
2023-04-21T01:45:54.885Z,100.00
2023-04-21T01:49:57.738Z,100.00
2023-04-21T01:54:32.353Z,100.00
2023-04-21T01:58:36.542Z,100.00
2023-04-21T02:03:08.085Z,100.00
2023-04-21T02:07:10.948Z,100.00
2023-04-21T02:11:50.312Z,100.00
2023-04-21T02:16:02.706Z,100.00
2023-04-21T02:20:25.168Z,100.00
2023-04-21T02:24:28.099Z,100.00
2023-04-21T02:28:31.657Z,100.00
2023-04-21T02:32:36.052Z,100.00
2023-04-21T02:36:40.684Z,100.00
2023-04-21T02:40:43.678Z,100.00
2023-04-21T02:44:48.004Z,100.00
2023-04-21T02:48:52.238Z,100.00
2023-04-21T02:52:55.041Z,100.00
2023-04-21T02:56:58.640Z,100.00
2023-04-21T03:01:02.282Z,100.00
2023-04-21T03:05:06.968Z,100.00
2023-04-21T03:09:10.374Z,100.00
2023-04-21T03:13:15.298Z,100.00
2023-04-21T03:17:18.271Z,100.00
2023-04-21T03:21:22.606Z,100.00
2023-04-21T03:25:27.480Z,100.00
2023-04-21T03:29:30.644Z,100.00
2023-04-21T03:33:33.446Z,100.00
2023-04-21T03:37:37.530Z,100.00
2023-04-21T03:41:40.982Z,100.00
2023-04-21T03:45:43.861Z,100.00
2023-04-21T03:49:46.605Z,100.00
2023-04-21T03:53:50.784Z,100.00
2023-04-21T03:57:54.746Z,100.00
2023-04-21T04:01:57.562Z,100.00
2023-04-21T04:06:00.402Z,100.00
2023-04-21T04:10:04.918Z,100.00
2023-04-21T04:14:07.743Z,100.00
2023-04-21T04:18:11.003Z,100.00
2023-04-21T04:22:13.784Z,100.00
2023-04-21T04:26:18.700Z,100.00
2023-04-21T04:30:21.563Z,100.00
2023-04-21T04:34:24.364Z,100.00
2023-04-21T04:38:28.389Z,100.00
2023-04-21T04:42:33.042Z,100.00
2023-04-21T04:46:36.070Z,100.00
2023-04-21T04:50:38.851Z,100.00
2023-04-21T04:54:41.663Z,100.00
2023-04-21T04:58:46.489Z,100.00
2023-04-21T05:02:49.393Z,100.00
2023-04-21T05:06:52.443Z,100.00
2023-04-21T05:10:56.363Z,100.00
2023-04-21T05:15:01.914Z,100.00
2023-04-21T05:19:04.752Z,100.00
2023-04-21T05:23:07.736Z,100.00
2023-04-21T05:27:10.509Z,100.00
2023-04-21T05:31:14.649Z,100.00
2023-04-21T05:35:17.570Z,100.00
2023-04-21T05:39:20.375Z,100.00
2023-04-21T05:43:23.394Z,100.00
2023-04-21T05:47:27.615Z,100.00
2023-04-21T05:51:32.125Z,100.00
2023-04-21T05:55:35.720Z,100.00
2023-04-21T05:59:38.454Z,100.00
2023-04-21T06:03:45.065Z,100.00
2023-04-21T06:07:48.002Z,100.00
2023-04-21T06:11:51.520Z,100.00
2023-04-21T06:15:54.379Z,100.00
2023-04-21T06:19:58.908Z,100.00
2023-04-21T06:24:01.679Z,100.00
2023-04-21T06:28:29.571Z,100.00
2023-04-21T06:32:32.372Z,100.00
2023-04-21T06:36:36.528Z,100.00
2023-04-21T06:40:39.334Z,100.00
2023-04-21T06:44:42.625Z,100.00
2023-04-21T06:48:47.043Z,100.00
2023-04-21T06:52:51.341Z,100.00
2023-04-21T06:57:00.605Z,100.00
2023-04-21T07:01:03.405Z,100.00
2023-04-21T07:05:06.936Z,100.00
2023-04-21T07:09:11.287Z,100.00
2023-04-21T07:13:14.352Z,100.00
2023-04-21T07:17:17.144Z,100.00
2023-04-21T07:21:19.962Z,100.00
2023-04-21T07:25:24.458Z,100.00
2023-04-21T07:29:27.647Z,100.00
2023-04-21T07:33:30.458Z,100.00
2023-04-21T07:37:33.280Z,100.00
2023-04-21T07:41:37.353Z,99.97
2023-04-21T07:45:40.260Z,99.82
2023-04-21T07:49:43.443Z,99.22
2023-04-21T07:53:46.205Z,97.82
2023-04-21T07:57:50.544Z,96.83
2023-04-21T08:01:54.400Z,96.95
2023-04-21T08:05:57.318Z,96.33
2023-04-21T08:10:01.174Z,93.69
2023-04-21T08:14:05.446Z,92.17
2023-04-21T08:18:09.477Z,92.49
2023-04-21T08:22:12.410Z,90.67
2023-04-21T08:26:15.615Z,90.74
2023-04-21T08:30:19.875Z,91.78
2023-04-21T08:34:25.727Z,90.90
2023-04-21T08:38:30.216Z,90.42
2023-04-21T08:42:33.430Z,90.01
2023-04-21T08:46:38.737Z,89.48
2023-04-21T08:50:45.700Z,89.14
2023-04-21T08:54:51.926Z,89.02
2023-04-21T08:58:55.003Z,89.07
2023-04-21T09:03:02.192Z,88.66
2023-04-21T09:07:05.494Z,88.66
2023-04-21T09:11:08.457Z,89.42
2023-04-21T09:15:12.604Z,88.59
2023-04-21T09:19:17.357Z,88.89
2023-04-21T09:23:22.354Z,88.55
2023-04-21T09:27:25.087Z,87.57
2023-04-21T09:31:29.129Z,87.09
2023-04-21T09:35:36.155Z,87.56
2023-04-21T09:39:52.822Z,86.25
2023-04-21T09:44:04.262Z,85.86
2023-04-21T09:48:10.600Z,85.90
2023-04-21T09:52:19.208Z,84.58
2023-04-21T09:56:26.247Z,84.73
2023-04-21T10:00:31.091Z,85.31
2023-04-21T10:04:36.170Z,85.02
2023-04-21T10:08:41.384Z,84.10
2023-04-21T10:12:45.826Z,84.76
2023-04-21T10:16:57.933Z,85.39
2023-04-21T10:21:04.442Z,85.69
2023-04-21T10:25:10.800Z,85.08
2023-04-21T10:29:16.136Z,85.31
2023-04-21T10:33:19.242Z,84.71
2023-04-21T10:37:22.085Z,83.31
2023-04-21T10:41:30.477Z,83.18
2023-04-21T10:45:34.017Z,81.75
2023-04-21T10:49:40.169Z,80.51
2023-04-21T10:53:44.934Z,79.45
2023-04-21T10:57:49.587Z,78.90
2023-04-21T11:01:52.841Z,77.74
2023-04-21T11:05:55.778Z,76.30
2023-04-21T11:10:00.017Z,77.39
2023-04-21T11:14:05.066Z,75.72
2023-04-21T11:18:08.725Z,76.10
2023-04-21T11:22:11.442Z,75.31
2023-04-21T11:26:14.596Z,74.68
2023-04-21T11:30:18.889Z,73.94
2023-04-21T11:34:22.535Z,74.77
2023-04-21T11:38:25.709Z,72.54
2023-04-21T11:42:28.905Z,73.13
2023-04-21T11:46:33.405Z,72.99
2023-04-21T11:50:38.861Z,73.69
2023-04-21T11:54:41.813Z,73.86
2023-04-21T11:58:45.995Z,73.71
2023-04-21T12:02:57.179Z,73.31
2023-04-21T12:07:02.522Z,73.95
2023-04-21T12:11:05.558Z,71.39
2023-04-21T12:15:10.629Z,68.70
2023-04-21T12:19:24.251Z,67.41
2023-04-21T12:23:27.057Z,65.54
2023-04-21T12:27:30.542Z,64.03
2023-04-21T12:31:33.873Z,62.12
2023-04-21T12:35:39.107Z,59.19
2023-04-21T12:39:41.903Z,59.61
2023-04-21T12:43:44.681Z,58.95
2023-04-21T12:47:47.518Z,59.92
2023-04-21T12:51:51.914Z,58.45
2023-04-21T12:56:04.206Z,58.12
2023-04-21T13:00:12.305Z,58.29
2023-04-21T13:04:15.461Z,59.19
2023-04-21T13:08:19.853Z,59.19
2023-04-21T13:12:22.642Z,59.38
2023-04-21T13:16:27.804Z,59.33
2023-04-21T13:20:32.270Z,59.53
2023-04-21T13:24:36.472Z,58.60
2023-04-21T13:28:39.595Z,59.28
2023-04-21T13:32:43.802Z,59.91
2023-04-21T13:36:46.729Z,59.29
2023-04-21T13:40:51.397Z,60.45
2023-04-21T13:44:54.549Z,61.65
2023-04-21T13:48:57.411Z,61.30
2023-04-21T13:53:00.299Z,61.00
2023-04-21T13:57:05.360Z,60.76
2023-04-21T14:01:08.143Z,58.63
2023-04-21T14:05:11.144Z,56.79
2023-04-21T14:09:14.018Z,56.70
2023-04-21T14:17:26.281Z,52.98
2023-04-21T14:21:29.177Z,53.33
2023-04-21T14:25:31.952Z,54.06
2023-04-21T14:29:36.293Z,53.93
2023-04-21T14:33:39.448Z,53.67
2023-04-21T14:37:42.421Z,52.36
2023-04-21T14:41:45.690Z,50.21
2023-04-21T14:45:50.156Z,51.10
2023-04-21T14:49:55.573Z,50.50
2023-04-21T14:53:58.667Z,50.96
2023-04-21T14:58:01.528Z,49.83
2023-04-21T15:02:05.921Z,49.39
2023-04-21T15:06:09.081Z,49.31
2023-04-21T15:10:12.672Z,49.74
2023-04-21T15:14:15.579Z,48.91
2023-04-21T15:18:20.901Z,49.01
2023-04-21T15:22:23.882Z,50.17
2023-04-21T15:26:26.842Z,50.43
2023-04-21T15:30:30.603Z,50.46
2023-04-21T15:34:35.055Z,50.97
2023-04-21T15:38:37.942Z,52.31
2023-04-21T15:42:41.262Z,54.84
2023-04-21T15:46:44.140Z,56.97
2023-04-21T15:50:49.448Z,59.63
2023-04-21T15:54:52.950Z,60.39
2023-04-21T15:59:02.364Z,61.15
2023-04-21T16:03:07.300Z,61.39
2023-04-21T16:07:12.220Z,62.39
2023-04-21T16:11:15.181Z,62.70
2023-04-21T16:15:23.790Z,64.38
2023-04-21T16:19:27.867Z,65.94
2023-04-21T16:23:32.202Z,66.65
2023-04-21T16:27:34.944Z,67.52
2023-04-21T16:31:37.783Z,68.02
2023-04-21T16:35:40.737Z,68.68
2023-04-21T16:39:45.010Z,69.71
2023-04-21T16:43:47.762Z,70.27
2023-04-21T16:47:50.668Z,69.61
2023-04-21T16:51:53.613Z,68.95
2023-04-21T16:55:57.880Z,68.74
2023-04-21T17:00:01.027Z,68.85
2023-04-21T17:04:04.051Z,68.34
2023-04-21T17:08:07.277Z,68.55
2023-04-21T17:12:11.589Z,68.69
2023-04-21T17:16:14.474Z,69.11
2023-04-21T17:20:17.298Z,68.99
2023-04-21T17:24:20.192Z,69.29
2023-04-21T17:28:24.672Z,68.98
2023-04-21T17:32:27.717Z,69.65
2023-04-21T17:36:31.386Z,70.04
2023-04-21T17:40:34.201Z,70.77
2023-04-21T17:44:39.940Z,70.59
2023-04-21T17:48:43.281Z,70.23
2023-04-21T17:52:46.051Z,70.23
2023-04-21T17:56:48.800Z,70.84
2023-04-21T18:00:53.027Z,72.84
2023-04-21T18:04:56.181Z,79.22
2023-04-21T18:08:59.041Z,70.33
2023-04-21T18:13:01.829Z,75.12
2023-04-21T18:17:05.966Z,79.69
2023-04-21T18:21:08.825Z,84.01
2023-04-21T18:25:12.410Z,85.57
2023-04-21T18:29:17.500Z,88.37
2023-04-21T18:33:21.832Z,91.36
2023-04-21T18:37:24.590Z,95.34
2023-04-21T18:41:27.758Z,98.29
2023-04-21T18:45:30.485Z,99.09
2023-04-21T18:49:34.804Z,100.00
2023-04-21T18:53:37.615Z,100.00
2023-04-21T18:57:40.318Z,100.00
2023-04-21T19:01:43.176Z,100.00
2023-04-21T19:05:47.982Z,100.00
2023-04-21T19:09:52.109Z,100.00
2023-04-21T19:13:55.036Z,100.00
2023-04-21T19:17:57.943Z,100.00
2023-04-21T19:22:04.148Z,100.00
2023-04-21T19:26:08.595Z,100.00
2023-04-21T19:30:12.365Z,100.00
2023-04-21T19:34:15.312Z,100.00
2023-04-21T19:38:19.854Z,100.00
2023-04-21T19:42:22.641Z,100.00
2023-04-21T19:46:25.747Z,100.00
2023-04-21T19:50:28.508Z,100.00
2023-04-21T19:54:32.893Z,100.00
2023-04-21T19:58:40.693Z,100.00
2023-04-21T20:02:44.167Z,100.00
2023-04-21T20:06:47.168Z,100.00
2023-04-21T20:10:51.660Z,100.00
2023-04-21T20:14:57.666Z,100.00
2023-04-21T20:19:01.144Z,100.00
2023-04-21T20:23:04.621Z,100.00
2023-04-21T20:27:09.194Z,100.00
2023-04-21T20:31:11.987Z,100.00
2023-04-21T20:35:16.934Z,100.00
2023-04-21T20:39:19.782Z,100.00
2023-04-21T20:43:23.919Z,100.00
2023-04-21T20:47:26.859Z,100.00
2023-04-21T20:51:29.557Z,100.00
2023-04-21T20:55:32.431Z,100.00
2023-04-21T20:59:37.093Z,100.00
2023-04-21T21:03:40.596Z,100.00
2023-04-21T21:07:43.474Z,100.00
2023-04-21T21:11:46.240Z,100.00
2023-04-21T21:15:50.407Z,100.00
2023-04-21T21:19:53.146Z,100.00
2023-04-21T21:23:55.833Z,100.00
2023-04-21T21:27:58.583Z,100.00
2023-04-21T21:32:03.118Z,100.00
2023-04-21T21:36:06.610Z,100.00
2023-04-21T21:40:11.060Z,100.00
2023-04-21T21:44:13.888Z,100.00
2023-04-21T21:48:18.040Z,100.00
2023-04-21T21:52:20.873Z,100.00
2023-04-21T21:56:25.844Z,100.00
2023-04-21T22:00:28.847Z,100.00
2023-04-21T22:04:33.047Z,100.00
2023-04-21T22:08:35.925Z,100.00
2023-04-21T22:12:38.730Z,100.00
2023-04-21T22:16:43.089Z,100.00
2023-04-21T22:20:47.507Z,100.00
2023-04-21T22:24:50.292Z,100.00
2023-04-21T22:28:54.714Z,100.00
2023-04-21T22:32:57.712Z,100.00
2023-04-21T22:37:02.423Z,100.00
2023-04-21T22:41:05.494Z,100.00
2023-04-21T22:45:09.498Z,100.00
2023-04-21T22:49:12.209Z,100.00
2023-04-21T22:53:18.253Z,100.00
2023-04-21T22:57:21.673Z,100.00
2023-04-21T23:01:24.637Z,100.00
2023-04-21T23:05:27.432Z,100.00
2023-04-21T23:09:31.541Z,100.00
2023-04-21T23:13:34.309Z,100.00
2023-04-21T23:17:37.161Z,100.00
2023-04-21T23:21:40.085Z,100.00
2023-04-21T23:25:44.432Z,100.00
2023-04-21T23:29:47.275Z,100.00
2023-04-21T23:33:50.088Z,100.00
2023-04-21T23:37:52.786Z,100.00
2023-04-21T23:41:58.002Z,100.00
2023-04-21T23:46:00.884Z,100.00
2023-04-21T23:50:03.666Z,100.00
2023-04-21T23:54:06.468Z,100.00
2023-04-21T23:58:11.989Z,100.00
